Time;durP1;ratioP1;P1;durP2;ratioP2;P2;SDS_P1;SDS_P2;PMS_P1;PMS_P2;Temp;Humidity;BMP_temperature;BMP_pressure;BME280_temperature;BME280_humidity;BME280_pressure;Samples;Min_cycle;Max_cycle;Signal;HPM_P1;HPM_P2
2023/04/18 00:01:55;;;;;;;;;;;;;;;7.93;86.44;102655.94;5084683;28;20332;-55
2023/04/18 00:04:21;;;;;;;;;;;;;;;7.90;85.50;102653.19;5083915;28;19946;-54
2023/04/18 00:06:48;;;;;;;;;;;;;;;7.91;85.20;102639.59;5081448;28;19931;-54
2023/04/18 00:09:13;;;;;;;;;;;;;;;7.89;85.97;102645.41;5073050;28;20369;-55
2023/04/18 00:11:39;;;;;;;;;;;;;;;7.86;86.35;102647.75;5074370;28;19996;-53
2023/04/18 00:14:05;;;;;;;;;;;;;;;7.86;85.44;102643.50;5074094;28;19960;-51
2023/04/18 00:16:31;;;;;;;;;;;;;;;7.87;84.37;102636.72;5083082;28;20310;-55
2023/04/18 00:18:56;;;;;;;;;;;;;;;7.87;84.46;102634.16;5085307;28;19924;-52
2023/04/18 00:21:22;;;;;;;;;;;;;;;7.89;83.61;102633.50;5081759;28;20334;-54
2023/04/18 00:23:47;;;;;;;;;;;;;;;7.88;83.35;102641.94;5077476;28;19947;-54
2023/04/18 00:26:12;;;;;;;;;;;;;;;7.88;83.11;102647.06;5077126;28;19947;-54
2023/04/18 00:28:37;;;;;;;;;;;;;;;7.87;82.90;102649.53;5081134;28;19920;-53
2023/04/18 00:31:03;;;;;;;;;;;;;;;7.87;82.48;102647.84;5080074;28;19924;-53
2023/04/18 00:33:28;;;;;;;;;;;;;;;7.85;82.18;102645.97;5091732;28;19920;-43
2023/04/18 00:35:53;;;;;;;;;;;;;;;7.82;82.09;102641.53;5083094;28;20322;-45
2023/04/18 00:38:19;;;;;;;;;;;;;;;7.78;82.16;102644.69;5086604;28;19920;-44
2023/04/18 00:40:44;;;;;;;;;;;;;;;7.78;81.80;102644.69;5084680;28;19933;-44
2023/04/18 00:43:11;;;;;;;;;;;;;;;7.76;81.37;102644.56;5083859;28;20397;-46
2023/04/18 00:45:37;;;;;;;;;;;;;;;7.76;81.70;102641.09;5086227;28;19924;-45
2023/04/18 00:48:02;;;;;;;;;;;;;;;7.76;81.04;102646.22;5082973;28;19927;-44
2023/04/18 00:50:27;;;;;;;;;;;;;;;7.81;80.65;102642.31;5088652;28;20374;-45
2023/04/18 00:52:53;;;;;;;;;;;;;;;7.75;80.18;102639.34;5077132;28;19919;-45
2023/04/18 00:55:19;;;;;;;;;;;;;;;7.74;80.04;102637.56;5083596;28;19923;-45
2023/04/18 00:57:44;;;;;;;;;;;;;;;7.73;80.21;102640.91;5079870;28;20321;-47
2023/04/18 01:00:11;;;;;;;;;;;;;;;7.71;79.72;102639.94;5087094;28;19966;-45
2023/04/18 01:02:36;;;;;;;;;;;;;;;7.68;79.93;102634.59;5083262;28;19931;-45
2023/04/18 01:05:03;;;;;;;;;;;;;;;7.62;80.04;102635.06;5085976;28;19925;-48
2023/04/18 01:07:32;;;;;;;;;;;;;;;7.59;80.15;102631.41;5083557;28;20298;-44
2023/04/18 01:09:57;;;;;;;;;;;;;;;7.57;80.03;102632.97;5081396;28;19970;-47
2023/04/18 01:12:23;;;;;;;;;;;;;;;7.52;80.04;102633.56;5087193;28;19916;-44
2023/04/18 01:14:48;;;;;;;;;;;;;;;7.56;79.48;102633.75;5087156;28;20350;-44
2023/04/18 01:17:13;;;;;;;;;;;;;;;7.53;79.46;102643.00;5083464;28;20028;-45
2023/04/18 01:19:39;;;;;;;;;;;;;;;7.51;79.38;102634.31;5082396;28;20007;-44
2023/04/18 01:22:05;;;;;;;;;;;;;;;7.48;79.50;102634.13;5080326;28;19924;-46
2023/04/18 01:24:31;;;;;;;;;;;;;;;7.43;79.64;102632.03;5088536;28;19938;-45
2023/04/18 01:26:57;;;;;;;;;;;;;;;7.40;79.49;102626.69;5084877;28;20466;-44
2023/04/18 01:29:23;;;;;;;;;;;;;;;7.36;79.57;102627.28;5080021;28;20059;-44
2023/04/18 01:31:48;;;;;;;;;;;;;;;7.32;79.67;102628.72;5084883;28;20010;-44
2023/04/18 01:34:13;;;;;;;;;;;;;;;7.32;79.98;102622.72;5081182;28;20286;-44
2023/04/18 01:36:38;;;;;;;;;;;;;;;7.29;79.62;102632.75;5081405;28;19925;-44
2023/04/18 01:39:04;;;;;;;;;;;;;;;7.24;79.49;102619.63;5088480;28;20293;-44
2023/04/18 01:41:31;;;;;;;;;;;;;;;7.21;79.61;102614.28;5079094;28;20279;-43
2023/04/18 01:43:56;;;;;;;;;;;;;;;7.19;79.34;102618.41;5081022;28;19965;-49
2023/04/18 01:46:21;;;;;;;;;;;;;;;7.13;79.19;102611.22;5083916;28;19920;-43
2023/04/18 01:48:47;;;;;;;;;;;;;;;7.17;79.14;102620.00;5079561;28;19931;-45
2023/04/18 01:51:12;;;;;;;;;;;;;;;7.09;79.09;102614.31;5083570;28;20409;-43
2023/04/18 01:53:38;;;;;;;;;;;;;;;7.01;79.22;102610.34;5083727;28;19953;-43
2023/04/18 01:56:03;;;;;;;;;;;;;;;6.99;79.28;102610.25;5082680;28;20406;-44
2023/04/18 01:58:28;;;;;;;;;;;;;;;6.95;79.09;102612.47;5078734;28;20460;-45
2023/04/18 02:00:56;;;;;;;;;;;;;;;6.91;78.98;102616.47;5078756;28;19921;-47
2023/04/18 02:03:21;;;;;;;;;;;;;;;6.87;79.31;102611.06;5080744;28;19945;-45
2023/04/18 02:05:47;;;;;;;;;;;;;;;6.80;79.11;102619.06;5084173;28;19920;-43
2023/04/18 02:08:12;;;;;;;;;;;;;;;6.74;78.93;102614.41;5079933;28;20358;-45
2023/04/18 02:10:38;;;;;;;;;;;;;;;6.71;79.28;102614.19;5082136;28;19916;-45
2023/04/18 02:13:03;;;;;;;;;;;;;;;6.63;79.00;102605.09;5084649;28;20402;-45
2023/04/18 02:15:29;;;;;;;;;;;;;;;6.62;79.10;102609.31;5080265;28;19920;-45
2023/04/18 02:17:54;;;;;;;;;;;;;;;6.61;79.03;102609.19;5077656;28;19920;-46
2023/04/18 02:20:19;;;;;;;;;;;;;;;6.51;78.84;102609.31;5080964;28;20391;-43
2023/04/18 02:22:45;;;;;;;;;;;;;;;6.52;78.45;102609.41;5074592;28;19932;-45
2023/04/18 02:25:11;;;;;;;;;;;;;;;6.47;78.67;102612.41;5085122;28;19939;-45
2023/04/18 02:27:36;;;;;;;;;;;;;;;6.45;78.58;102609.75;5084056;28;20297;-48
2023/04/18 02:30:01;;;;;;;;;;;;;;;6.35;78.57;102612.41;5086060;28;19981;-45
2023/04/18 02:32:26;;;;;;;;;;;;;;;6.32;78.62;102607.97;5083175;28;20005;-46
2023/04/18 02:34:52;;;;;;;;;;;;;;;6.28;78.89;102608.53;5088028;28;19955;-47
2023/04/18 02:37:17;;;;;;;;;;;;;;;6.25;78.63;102602.28;5075732;28;19970;-45
2023/04/18 02:39:42;;;;;;;;;;;;;;;6.18;78.67;102606.06;5084460;28;19950;-44
2023/04/18 02:42:08;;;;;;;;;;;;;;;6.13;78.97;102605.75;5081954;28;19931;-44
2023/04/18 02:44:33;;;;;;;;;;;;;;;6.12;78.85;102610.72;5083279;28;20166;-46
2023/04/18 02:46:59;;;;;;;;;;;;;;;6.08;78.99;102604.50;5081379;28;19927;-43
2023/04/18 02:49:24;;;;;;;;;;;;;;;6.05;78.64;102606.81;5077364;28;19928;-46
2023/04/18 02:51:52;;;;;;;;;;;;;;;6.00;78.98;102597.94;5083437;28;19924;-45
2023/04/18 02:54:17;;;;;;;;;;;;;;;5.97;79.05;102600.28;5070123;28;20011;-44
2023/04/18 02:56:43;;;;;;;;;;;;;;;5.97;78.82;102602.81;5080327;28;20011;-47
2023/04/18 02:59:08;;;;;;;;;;;;;;;5.96;78.68;102610.38;5086233;28;19923;-44
2023/04/18 03:01:33;;;;;;;;;;;;;;;5.90;78.85;102605.66;5082859;28;19956;-44
2023/04/18 03:03:59;;;;;;;;;;;;;;;5.86;78.86;102601.09;5073880;28;19981;-45
2023/04/18 03:06:24;;;;;;;;;;;;;;;5.84;78.91;102595.00;5082695;28;19962;-45
2023/04/18 03:08:49;;;;;;;;;;;;;;;5.81;78.63;102592.19;5088121;28;20032;-44
2023/04/18 03:11:14;;;;;;;;;;;;;;;5.79;78.70;102594.66;5083511;28;19924;-43
2023/04/18 03:13:40;;;;;;;;;;;;;;;5.79;78.75;102593.75;5078981;28;19935;-43
2023/04/18 03:16:05;;;;;;;;;;;;;;;5.74;78.75;102590.84;5086320;28;19923;-46
2023/04/18 03:18:30;;;;;;;;;;;;;;;5.71;78.85;102600.84;5086148;28;19920;-45
2023/04/18 03:20:56;;;;;;;;;;;;;;;5.69;78.91;102604.94;5086780;28;20178;-43
2023/04/18 03:23:21;;;;;;;;;;;;;;;5.64;78.99;102596.03;5086303;28;19928;-44
2023/04/18 03:25:46;;;;;;;;;;;;;;;5.61;79.04;102604.34;5079271;28;20375;-45
2023/04/18 03:28:11;;;;;;;;;;;;;;;5.57;79.46;102602.34;5078037;28;20401;-44
2023/04/18 03:30:37;;;;;;;;;;;;;;;5.54;79.43;102608.88;5081855;28;19934;-44
2023/04/18 03:33:04;;;;;;;;;;;;;;;5.51;79.29;102608.63;5088142;28;20019;-45
2023/04/18 03:35:29;;;;;;;;;;;;;;;5.50;79.41;102610.31;5085978;28;19955;-43
2023/04/18 03:37:54;;;;;;;;;;;;;;;5.51;79.25;102601.88;5080604;28;19967;-44
2023/04/18 03:40:19;;;;;;;;;;;;;;;5.48;79.84;102609.31;5081263;28;19923;-44
2023/04/18 03:42:45;;;;;;;;;;;;;;;5.46;79.47;102608.31;5079861;28;20462;-44
2023/04/18 03:45:10;;;;;;;;;;;;;;;5.43;79.63;102618.28;5075059;28;19920;-43
2023/04/18 03:47:35;;;;;;;;;;;;;;;5.39;79.54;102609.47;5079259;28;19915;-45
2023/04/18 03:50:01;;;;;;;;;;;;;;;5.36;79.78;102616.91;5089498;28;19924;-43
2023/04/18 03:52:26;;;;;;;;;;;;;;;5.32;80.09;102620.00;5100157;28;19958;-45
2023/04/18 03:54:51;;;;;;;;;;;;;;;5.34;79.62;102617.59;5096145;28;19931;-44
2023/04/18 03:57:16;;;;;;;;;;;;;;;5.35;79.84;102621.91;5090852;28;19954;-46
2023/04/18 03:59:42;;;;;;;;;;;;;;;5.29;80.07;102614.66;5100488;28;19971;-45
2023/04/18 04:02:07;;;;;;;;;;;;;;;5.28;79.66;102619.66;5096915;28;20358;-44
2023/04/18 04:04:32;;;;;;;;;;;;;;;5.22;79.80;102614.97;5088055;28;20283;-44
2023/04/18 04:06:58;;;;;;;;;;;;;;;5.20;80.06;102621.59;5089911;28;19925;-44
2023/04/18 04:09:23;;;;;;;;;;;;;;;5.15;80.26;102616.91;5085151;28;19983;-45
2023/04/18 04:11:49;;;;;;;;;;;;;;;5.14;80.44;102612.56;5086045;28;19924;-44
2023/04/18 04:14:14;;;;;;;;;;;;;;;5.14;80.52;102615.13;5082576;28;19920;-44
2023/04/18 04:16:39;;;;;;;;;;;;;;;5.10;80.22;102617.47;5088721;28;20344;-44
2023/04/18 04:19:04;;;;;;;;;;;;;;;5.07;80.47;102614.66;5088802;28;19928;-45
2023/04/18 04:21:30;;;;;;;;;;;;;;;5.03;80.76;102614.28;5087188;28;20320;-44
2023/04/18 04:23:55;;;;;;;;;;;;;;;5.03;80.72;102617.72;5083264;28;19928;-43
2023/04/18 04:26:22;;;;;;;;;;;;;;;5.02;80.71;102613.41;5081996;28;19921;-45
2023/04/18 04:28:47;;;;;;;;;;;;;;;5.01;80.75;102620.94;5079382;28;20459;-44
2023/04/18 04:31:12;;;;;;;;;;;;;;;5.00;80.93;102621.72;5071945;28;20335;-44
2023/04/18 04:33:37;;;;;;;;;;;;;;;4.97;81.09;102630.00;5073801;28;19930;-44
2023/04/18 04:36:04;;;;;;;;;;;;;;;5.03;80.88;102627.03;5071935;28;19927;-45
2023/04/18 04:38:29;;;;;;;;;;;;;;;5.00;80.81;102629.34;5085733;28;19920;-44
2023/04/18 04:40:56;;;;;;;;;;;;;;;4.99;80.74;102622.47;5094869;28;20022;-44
2023/04/18 04:43:21;;;;;;;;;;;;;;;4.97;80.87;102618.91;5090272;28;19926;-44
2023/04/18 04:45:48;;;;;;;;;;;;;;;4.95;81.00;102628.09;5087832;28;20377;-49
2023/04/18 04:48:14;;;;;;;;;;;;;;;5.00;80.90;102619.16;5080397;28;20162;-47
2023/04/18 04:50:40;;;;;;;;;;;;;;;4.93;81.05;102630.53;5093290;28;19961;-44
2023/04/18 04:53:05;;;;;;;;;;;;;;;4.91;80.80;102624.41;5081060;28;19982;-47
2023/04/18 04:55:31;;;;;;;;;;;;;;;4.92;81.19;102632.97;5094581;28;20362;-46
2023/04/18 04:57:56;;;;;;;;;;;;;;;4.88;81.49;102634.38;5082463;28;19920;-43
2023/04/18 05:00:22;;;;;;;;;;;;;;;4.88;81.46;102634.38;5089539;28;19927;-44
2023/04/18 05:02:47;;;;;;;;;;;;;;;4.91;81.09;102634.59;5097371;28;19930;-45
2023/04/18 05:05:13;;;;;;;;;;;;;;;4.91;81.31;102633.72;5086404;28;20233;-45
2023/04/18 05:07:38;;;;;;;;;;;;;;;4.92;81.25;102632.97;5092288;28;20060;-48
2023/04/18 05:10:03;;;;;;;;;;;;;;;4.89;81.56;102631.06;5078576;28;19927;-45
2023/04/18 05:12:30;;;;;;;;;;;;;;;4.90;81.85;102637.03;5089734;28;19996;-46
2023/04/18 05:14:55;;;;;;;;;;;;;;;4.91;81.70;102637.16;5081285;28;19928;-45
2023/04/18 05:17:20;;;;;;;;;;;;;;;4.94;82.03;102631.44;5082454;28;19921;-45
2023/04/18 05:19:45;;;;;;;;;;;;;;;4.99;82.03;102635.22;5078909;28;19920;-44
2023/04/18 05:22:11;;;;;;;;;;;;;;;5.06;82.11;102635.81;5084436;28;20410;-44
2023/04/18 05:24:36;;;;;;;;;;;;;;;5.11;82.01;102641.28;5081468;28;19928;-46
2023/04/18 05:27:01;;;;;;;;;;;;;;;5.19;81.53;102642.78;5078743;28;19981;-46
2023/04/18 05:29:27;;;;;;;;;;;;;;;5.27;81.71;102636.59;5083253;28;19924;-46
2023/04/18 05:31:52;;;;;;;;;;;;;;;5.33;81.30;102648.94;5083844;28;20332;-45
2023/04/18 05:34:17;;;;;;;;;;;;;;;5.41;81.49;102641.91;5083560;28;19928;-43
2023/04/18 05:36:42;;;;;;;;;;;;;;;5.48;81.18;102644.16;5090817;28;20018;-46
2023/04/18 05:39:08;;;;;;;;;;;;;;;5.46;81.00;102655.88;5079903;28;20045;-44
2023/04/18 05:41:33;;;;;;;;;;;;;;;5.35;81.28;102647.41;5087713;28;19939;-43
2023/04/18 05:43:58;;;;;;;;;;;;;;;5.27;81.70;102662.09;5081968;28;19924;-44
2023/04/18 05:46:23;;;;;;;;;;;;;;;5.19;81.92;102652.97;5082276;28;19928;-45
2023/04/18 05:48:49;;;;;;;;;;;;;;;5.15;82.27;102656.03;5081641;28;19921;-44
2023/04/18 05:51:14;;;;;;;;;;;;;;;5.13;82.65;102654.16;5082042;28;19923;-47
2023/04/18 05:53:39;;;;;;;;;;;;;;;5.13;82.39;102657.59;5083127;28;19935;-46
2023/04/18 05:56:05;;;;;;;;;;;;;;;5.17;82.13;102661.28;5081868;28;19928;-46
2023/04/18 05:58:30;;;;;;;;;;;;;;;5.21;82.74;102664.16;5089464;28;19920;-43
2023/04/18 06:00:56;;;;;;;;;;;;;;;5.24;82.57;102659.31;5077191;28;19920;-46
2023/04/18 06:03:21;;;;;;;;;;;;;;;5.32;82.67;102667.56;5084355;28;20776;-46
2023/04/18 06:05:46;;;;;;;;;;;;;;;5.39;82.42;102670.72;5079067;28;20369;-43
2023/04/18 06:08:11;;;;;;;;;;;;;;;5.50;82.72;102674.09;5080136;28;19982;-45
2023/04/18 06:10:37;;;;;;;;;;;;;;;5.56;82.65;102674.56;5081256;28;19955;-44
2023/04/18 06:13:02;;;;;;;;;;;;;;;5.65;82.77;102666.75;5075710;28;19931;-45
2023/04/18 06:15:27;;;;;;;;;;;;;;;5.77;82.62;102669.34;5081366;28;19917;-44
2023/04/18 06:17:53;;;;;;;;;;;;;;;5.88;82.22;102664.28;5088315;28;19960;-44
2023/04/18 06:20:18;;;;;;;;;;;;;;;6.00;82.43;102666.00;5080541;28;20163;-44
2023/04/18 06:22:43;;;;;;;;;;;;;;;6.14;81.84;102671.38;5080914;28;19921;-56
2023/04/18 06:25:09;;;;;;;;;;;;;;;6.30;81.69;102667.38;5074207;28;19928;-56
2023/04/18 06:27:35;;;;;;;;;;;;;;;6.45;81.57;102666.88;5082177;28;19916;-53
2023/04/18 06:30:00;;;;;;;;;;;;;;;6.60;81.20;102674.75;5076815;28;19928;-55
2023/04/18 06:32:25;;;;;;;;;;;;;;;6.72;80.67;102679.88;5087592;28;19980;-57
2023/04/18 06:34:51;;;;;;;;;;;;;;;6.72;81.07;102682.41;5096202;28;20377;-54
2023/04/18 06:37:17;;;;;;;;;;;;;;;6.78;80.83;102672.63;5076300;28;20356;-56
2023/04/18 06:39:42;;;;;;;;;;;;;;;6.86;80.53;102680.88;5078498;28;20383;-55
2023/04/18 06:42:07;;;;;;;;;;;;;;;6.90;80.74;102685.41;5076849;28;19928;-56
2023/04/18 06:44:32;;;;;;;;;;;;;;;6.93;80.89;102676.31;5076696;28;20547;-55
2023/04/18 06:46:58;;;;;;;;;;;;;;;7.07;81.02;102678.97;5083291;28;19925;-55
2023/04/18 06:49:23;;;;;;;;;;;;;;;7.24;80.20;102678.47;5077655;28;19920;-57
2023/04/18 06:51:48;;;;;;;;;;;;;;;7.30;80.04;102686.59;5079788;28;19920;-54
2023/04/18 06:54:13;;;;;;;;;;;;;;;7.34;80.11;102686.03;5077822;28;20023;-55
2023/04/18 06:56:39;;;;;;;;;;;;;;;7.44;79.75;102683.31;5075037;28;19947;-55
2023/04/18 06:59:04;;;;;;;;;;;;;;;7.57;79.56;102681.59;5077194;28;20023;-55
2023/04/18 07:01:30;;;;;;;;;;;;;;;7.89;79.26;102691.50;5074470;28;19931;-56
2023/04/18 07:03:56;;;;;;;;;;;;;;;8.11;78.75;102691.28;5072188;28;19920;-57
2023/04/18 07:06:21;;;;;;;;;;;;;;;8.17;78.00;102692.56;5075609;28;20395;-56
2023/04/18 07:08:46;;;;;;;;;;;;;;;8.12;78.13;102690.47;5080509;28;20022;-56
2023/04/18 07:11:17;;;;;;;;;;;;;;;7.98;78.03;102692.13;5078725;28;20113;-56
2023/04/18 07:13:42;;;;;;;;;;;;;;;7.96;78.13;102699.72;5078996;28;19959;-57
2023/04/18 07:16:08;;;;;;;;;;;;;;;7.91;77.99;102695.06;5074745;28;20364;-55
2023/04/18 07:18:33;;;;;;;;;;;;;;;7.86;77.81;102697.31;5074305;28;19928;-57
2023/04/18 07:20:58;;;;;;;;;;;;;;;7.83;77.96;102697.09;5078797;28;20457;-57
2023/04/18 07:23:24;;;;;;;;;;;;;;;7.73;78.22;102694.69;5076228;28;20004;-54
2023/04/18 07:25:49;;;;;;;;;;;;;;;7.72;78.79;102700.59;5078263;28;20051;-56
2023/04/18 07:28:15;;;;;;;;;;;;;;;7.70;79.15;102699.59;5076624;28;19931;-55
2023/04/18 07:30:40;;;;;;;;;;;;;;;7.76;78.73;102694.88;5078660;28;19963;-56
2023/04/18 07:33:05;;;;;;;;;;;;;;;7.76;78.71;102697.44;5081922;28;19963;-57
2023/04/18 07:35:31;;;;;;;;;;;;;;;7.75;78.79;102693.13;5077585;28;19939;-57
2023/04/18 07:37:56;;;;;;;;;;;;;;;7.78;78.76;102701.91;5077995;28;19964;-57
2023/04/18 07:40:21;;;;;;;;;;;;;;;7.71;79.06;102711.63;5084077;28;19924;-56
2023/04/18 07:42:46;;;;;;;;;;;;;;;7.76;78.87;102700.00;5078282;28;20434;-56
2023/04/18 07:45:12;;;;;;;;;;;;;;;7.78;78.96;102716.38;5078308;28;20379;-56
2023/04/18 07:47:37;;;;;;;;;;;;;;;7.69;79.43;102710.63;5090757;28;19927;-56
2023/04/18 07:50:03;;;;;;;;;;;;;;;7.71;79.28;102717.63;5085863;28;19916;-56
2023/04/18 07:52:28;;;;;;;;;;;;;;;7.76;79.59;102710.25;5094609;28;19920;-56
2023/04/18 07:54:54;;;;;;;;;;;;;;;7.80;79.76;102704.56;5082642;28;19919;-56
2023/04/18 07:57:19;;;;;;;;;;;;;;;7.96;79.25;102714.19;5087498;28;19955;-57
2023/04/18 07:59:44;;;;;;;;;;;;;;;7.98;79.04;102717.75;5087873;28;19975;-56
2023/04/18 08:02:10;;;;;;;;;;;;;;;8.00;79.71;102713.59;5083556;28;20302;-56
2023/04/18 08:04:35;;;;;;;;;;;;;;;8.18;79.36;102713.94;5082625;28;20392;-55
2023/04/18 08:07:00;;;;;;;;;;;;;;;8.26;79.03;102713.69;5087295;28;19919;-54
2023/04/18 08:09:25;;;;;;;;;;;;;;;8.36;79.05;102712.66;5079888;28;19920;-54
2023/04/18 08:11:51;;;;;;;;;;;;;;;8.43;78.98;102721.63;5082728;28;19923;-55
2023/04/18 08:14:16;;;;;;;;;;;;;;;8.52;79.07;102719.69;5089027;28;19932;-55
2023/04/18 08:16:41;;;;;;;;;;;;;;;8.63;79.01;102720.41;5100440;28;20401;-55
2023/04/18 08:19:07;;;;;;;;;;;;;;;8.81;78.59;102719.91;5084780;28;19927;-55
2023/04/18 08:21:32;;;;;;;;;;;;;;;8.89;77.76;102717.84;5092625;28;19965;-55
2023/04/18 08:23:57;;;;;;;;;;;;;;;8.96;77.21;102708.84;5092090;28;19920;-56
2023/04/18 08:26:23;;;;;;;;;;;;;;;8.88;77.87;102718.63;5100595;28;20369;-56
2023/04/18 08:28:48;;;;;;;;;;;;;;;8.95;77.33;102712.22;5091517;28;20007;-55
2023/04/18 08:31:13;;;;;;;;;;;;;;;9.07;76.20;102725.84;5091478;28;20064;-56
2023/04/18 08:33:39;;;;;;;;;;;;;;;8.89;77.14;102722.09;5084564;28;19923;-55
2023/04/18 08:36:05;;;;;;;;;;;;;;;8.91;77.31;102721.38;5096126;28;19916;-55
2023/04/18 08:38:30;;;;;;;;;;;;;;;9.01;76.50;102728.88;5077311;28;20481;-56
2023/04/18 08:40:55;;;;;;;;;;;;;;;9.01;75.99;102713.50;5074682;28;20414;-57
2023/04/18 08:43:20;;;;;;;;;;;;;;;8.94;76.72;102716.47;5071414;28;20459;-56
2023/04/18 08:45:46;;;;;;;;;;;;;;;9.02;76.47;102717.81;5079865;28;19929;-56
2023/04/18 08:48:12;;;;;;;;;;;;;;;9.08;76.86;102725.91;5079030;28;19916;-54
2023/04/18 08:50:38;;;;;;;;;;;;;;;9.22;75.54;102715.63;5094087;28;20385;-55
2023/04/18 08:53:03;;;;;;;;;;;;;;;9.20;76.24;102714.66;5096794;28;19920;-56
2023/04/18 08:55:29;;;;;;;;;;;;;;;9.37;75.66;102708.91;5091393;28;19920;-55
2023/04/18 08:57:54;;;;;;;;;;;;;;;9.50;74.57;102705.41;5104581;28;19969;-57
2023/04/18 09:00:21;;;;;;;;;;;;;;;9.58;74.14;102705.06;5082007;28;19916;-56
2023/04/18 09:02:48;;;;;;;;;;;;;;;9.73;75.11;102699.13;5084525;28;20291;-58
2023/04/18 09:05:15;;;;;;;;;;;;;;;10.04;73.98;102689.88;5085741;28;20333;-56
2023/04/18 09:07:40;;;;;;;;;;;;;;;10.22;72.89;102700.34;5086706;28;19947;-57
2023/04/18 09:10:06;;;;;;;;;;;;;;;10.44;70.31;102700.84;5094171;28;19970;-57
2023/04/18 09:12:33;;;;;;;;;;;;;;;10.35;71.34;102697.75;5077529;28;19931;-57
2023/04/18 09:15:09;;;;;;;;;;;;;;;10.38;72.45;102694.47;5078564;28;19924;-57
2023/04/18 09:17:36;;;;;;;;;;;;;;;10.56;71.84;102687.81;5080838;28;19945;-46
2023/04/18 09:20:04;;;;;;;;;;;;;;;10.72;71.52;102687.88;5075011;28;19924;-46
2023/04/18 09:22:46;;;;;;;;;;;;;;;10.78;70.19;102696.72;5075107;28;20379;-44
2023/04/18 09:25:23;;;;;;;;;;;;;;;10.78;68.92;102696.72;5073822;28;20018;-47
2023/04/18 09:27:48;;;;;;;;;;;;;;;10.53;70.63;102694.47;5079431;28;19929;-47
2023/04/18 09:30:27;;;;;;;;;;;;;;;10.64;69.29;102698.53;5074108;28;19978;-49
2023/04/18 09:32:56;;;;;;;;;;;;;;;10.63;68.67;102700.22;5079796;28;19997;-45
2023/04/18 09:35:23;;;;;;;;;;;;;;;10.50;68.96;102702.91;5076396;28;20291;-49
2023/04/18 09:37:50;;;;;;;;;;;;;;;10.47;68.94;102692.41;5073433;28;19981;-45
2023/04/18 09:40:17;;;;;;;;;;;;;;;10.47;69.07;102695.88;5072521;28;19928;-46
2023/04/18 09:42:42;;;;;;;;;;;;;;;10.51;68.03;102696.94;5084065;28;20223;-48
2023/04/18 09:45:07;;;;;;;;;;;;;;;10.49;68.70;102698.53;5080815;28;19977;-46
2023/04/18 09:47:35;;;;;;;;;;;;;;;10.64;68.54;102686.56;5080055;28;20333;-46
2023/04/18 09:50:05;;;;;;;;;;;;;;;10.67;68.00;102694.44;5078465;28;19921;-46
2023/04/18 09:52:39;;;;;;;;;;;;;;;10.66;67.82;102691.78;5078150;28;19980;-44
2023/04/18 09:55:09;;;;;;;;;;;;;;;10.66;67.62;102684.94;5078431;28;19922;-46
2023/04/18 09:57:35;;;;;;;;;;;;;;;10.70;67.09;102693.75;5077290;28;19958;-45
2023/04/18 10:00:16;;;;;;;;;;;;;;;10.72;66.50;102687.88;5077945;28;19959;-46
2023/04/18 10:02:49;;;;;;;;;;;;;;;10.81;66.78;102684.06;5077249;28;19920;-49
2023/04/18 10:05:15;;;;;;;;;;;;;;;10.87;66.78;102686.97;5078715;28;19977;-45
2023/04/18 10:07:43;;;;;;;;;;;;;;;11.00;64.55;102684.28;5077273;28;19924;-48
2023/04/18 10:10:08;;;;;;;;;;;;;;;10.99;64.73;102701.41;5075367;28;19924;-47
2023/04/18 10:12:35;;;;;;;;;;;;;;;11.06;64.89;102694.03;5070887;28;19969;-47
2023/04/18 10:15:01;;;;;;;;;;;;;;;11.01;65.49;102692.06;5080025;28;20370;-47
2023/04/18 10:17:27;;;;;;;;;;;;;;;11.01;65.98;102692.06;5076700;28;19920;-47
2023/04/18 10:20:09;;;;;;;;;;;;;;;11.21;65.03;102697.41;5076335;28;20408;-48
2023/04/18 10:22:34;;;;;;;;;;;;;;;11.21;63.97;102700.88;5077438;28;20567;-47
2023/04/18 10:24:59;;;;;;;;;;;;;;;11.19;63.63;102689.63;5079411;28;20547;-44
2023/04/18 10:27:44;;;;;;;;;;;;;;;11.15;62.89;102682.53;5074914;28;19923;-47
2023/04/18 10:30:09;;;;;;;;;;;;;;;11.16;62.41;102686.91;5077054;28;19955;-48
2023/04/18 10:32:35;;;;;;;;;;;;;;;11.08;62.60;102695.88;5077195;28;20395;-47
2023/04/18 10:35:00;;;;;;;;;;;;;;;10.98;63.40;102701.28;5078770;28;19947;-45
2023/04/18 10:37:25;;;;;;;;;;;;;;;11.04;62.78;102686.19;5076950;28;21078;-46
2023/04/18 10:39:51;;;;;;;;;;;;;;;11.08;63.18;102702.72;5078566;28;19932;-45
2023/04/18 10:42:16;;;;;;;;;;;;;;;11.10;62.81;102690.78;5075556;28;19927;-48
2023/04/18 10:44:41;;;;;;;;;;;;;;;11.21;62.80;102692.28;5068000;28;19916;-47
2023/04/18 10:47:06;;;;;;;;;;;;;;;11.17;63.12;102695.50;5072937;28;19928;-46
2023/04/18 10:49:34;;;;;;;;;;;;;;;11.14;63.48;102692.75;5079089;28;19931;-48
2023/04/18 10:52:01;;;;;;;;;;;;;;;11.12;64.11;102686.63;5077097;28;19924;-44
2023/04/18 10:54:46;;;;;;;;;;;;;;;11.17;64.11;102686.09;5077885;28;20010;-46
2023/04/18 10:57:12;;;;;;;;;;;;;;;11.19;63.81;102694.78;5078071;28;19981;-46
2023/04/18 10:59:40;;;;;;;;;;;;;;;11.11;63.23;102700.31;5074250;28;20446;-48
2023/04/18 11:02:20;;;;;;;;;;;;;;;11.01;63.97;102697.22;5078172;28;20302;-46
2023/04/18 11:04:52;;;;;;;;;;;;;;;11.03;64.41;102681.84;5075758;28;19977;-49
2023/04/18 11:07:18;;;;;;;;;;;;;;;10.98;64.86;102691.91;5076437;28;19916;-46
2023/04/18 11:09:53;;;;;;;;;;;;;;;11.10;64.01;102680.50;5062636;28;19999;-47
2023/04/18 11:12:19;;;;;;;;;;;;;;;11.22;64.00;102687.22;5076227;28;19926;-53
2023/04/18 11:14:46;;;;;;;;;;;;;;;11.27;63.17;102688.34;5075452;28;19924;-49
2023/04/18 11:17:19;;;;;;;;;;;;;;;11.12;64.53;102684.94;5078370;28;19920;-44
2023/04/18 11:19:45;;;;;;;;;;;;;;;11.22;64.01;102689.81;5073275;28;20371;-47
2023/04/18 11:22:10;;;;;;;;;;;;;;;11.17;64.53;102680.94;5072893;28;19939;-46
2023/04/18 11:24:35;;;;;;;;;;;;;;;11.34;63.98;102688.66;5074161;28;19932;-48
2023/04/18 11:27:02;;;;;;;;;;;;;;;11.26;64.39;102690.84;5077732;28;19970;-46
2023/04/18 11:29:27;;;;;;;;;;;;;;;11.27;64.30;102693.50;5069499;28;19921;-45
2023/04/18 11:31:53;;;;;;;;;;;;;;;11.11;65.16;102683.19;5076934;28;19931;-48
2023/04/18 11:34:18;;;;;;;;;;;;;;;11.09;65.09;102681.31;5069729;28;19920;-46
2023/04/18 11:36:47;;;;;;;;;;;;;;;11.11;65.62;102677.16;5071508;28;20344;-47
2023/04/18 11:39:13;;;;;;;;;;;;;;;11.16;65.14;102680.81;5072403;28;19920;-46
2023/04/18 11:41:39;;;;;;;;;;;;;;;11.25;64.95;102695.09;5072861;28;19939;-45
2023/04/18 11:44:05;;;;;;;;;;;;;;;11.23;65.47;102690.69;5072166;28;19935;-46
2023/04/18 11:46:46;;;;;;;;;;;;;;;11.17;65.82;102686.09;4978325;28;19956;-46
2023/04/18 11:49:28;;;;;;;;;;;;;;;11.21;65.89;102687.13;4974581;28;19922;-45
2023/04/18 11:51:53;;;;;;;;;;;;;;;11.15;66.24;102700.53;4973913;28;19959;-45
2023/04/18 11:54:41;;;;;;;;;;;;;;;11.24;65.47;102689.88;4980861;28;20016;-46
2023/04/18 11:57:25;;;;;;;;;;;;;;;11.14;66.03;102693.63;4995684;28;19926;-46
2023/04/18 11:59:52;;;;;;;;;;;;;;;11.10;65.97;102681.41;4973526;28;19922;-46
2023/04/18 12:02:17;;;;;;;;;;;;;;;10.99;66.43;102700.53;4978334;28;19963;-44
2023/04/18 12:04:53;;;;;;;;;;;;;;;10.74;67.40;102701.72;4975519;28;19969;-45
2023/04/18 12:07:35;;;;;;;;;;;;;;;10.81;67.49;102687.50;4975242;28;19918;-44
2023/04/18 12:10:08;;;;;;;;;;;;;;;10.78;67.89;102697.63;4977555;28;19965;-48
2023/04/18 12:12:34;;;;;;;;;;;;;;;10.65;68.71;102688.31;4978172;28;20278;-43
2023/04/18 12:15:07;;;;;;;;;;;;;;;10.67;68.80;102691.84;4982794;28;20388;-45
2023/04/18 12:17:32;;;;;;;;;;;;;;;10.90;68.35;102689.69;4977459;28;20459;-45
2023/04/18 12:20:02;;;;;;;;;;;;;;;10.78;69.00;102696.72;4977988;28;19922;-44
2023/04/18 12:22:41;;;;;;;;;;;;;;;10.82;69.40;102673.84;4980180;28;19929;-44
2023/04/18 12:25:07;;;;;;;;;;;;;;;11.08;68.79;102697.56;4980390;28;20377;-47
2023/04/18 12:27:52;;;;;;;;;;;;;;;11.01;68.76;102681.78;4977364;28;19922;-43
2023/04/18 12:30:21;;;;;;;;;;;;;;;11.01;68.73;102681.78;4974636;28;19918;-47
2023/04/18 12:32:50;;;;;;;;;;;;;;;11.16;68.48;102694.63;4972951;28;20046;-44
2023/04/18 12:35:16;;;;;;;;;;;;;;;11.07;68.72;102681.22;4975661;28;19918;-45
2023/04/18 12:37:42;;;;;;;;;;;;;;;11.21;68.78;102677.69;4978448;28;19961;-45
2023/04/18 12:40:08;;;;;;;;;;;;;;;11.45;67.30;102674.69;4980235;28;20000;-45